Latest Coastal Weather Observations for Walpole North

IDW60701

Issued at 7:45 am WST Sunday 26 October 2014 (issued every 10 minutes, with the page automatically refreshed every 10 minutes)

About coastal observations | Map of coastal stations | Coastal observations for WA | Marine services | Other Formats
Station Details ID: 009998 Name: NORTH WALPOLE Lat: -34.95 Lon: 116.72 Height: 73.0 m
Data from the previous 72 hours. | See also: Recent months at Walpole North
Date/Time
WST
Temp

°C
Wind Pressure Rain
since 9am
mm
Weather Cloud Vis
km
Sea
Height
m
Swell
Dir
 
Speed
knots
Gust
knots
hPa Trend Height
m
Period
s
Dir
26/07:30am 15.6 WSW 11 18 1019.0 - 5.0 - - - - - - -
26/07:00am 15.1 WSW 9 15 1018.6 - 5.0 - - - - - - -
26/06:30am 14.5 WSW 7 11 1018.2 - 5.0 - - - - - - -
26/06:00am 14.3 WSW 9 21 1017.6 - 5.0 - - - - - - -
26/05:30am 14.0 WSW 9 14 1017.3 - 5.0 - - - - - - -
26/05:00am 13.8 WSW 10 17 1016.7 - 5.0 - - - - - - -
26/04:30am 13.6 WSW 13 21 1016.5 - 5.0 - - - - - - -
26/04:00am 13.4 W 10 16 1016.1 - 5.0 - - - - - - -
26/03:30am 13.5 W 7 14 1016.1 - 5.0 - - - - - - -
26/03:00am 13.5 W 6 9 1015.7 - 4.8 Recent precip. - - - - - -
26/02:30am 13.5 W 8 16 1015.5 - 4.8 - - - - - - -
26/02:00am 13.6 W 12 21 1015.7 - 4.0 - - - - - - -
26/01:30am 13.3 NW 11 14 1015.3 - 4.0 - - - - - - -
26/01:00am 13.5 WNW 7 10 1015.4 - 4.0 - - - - - - -
26/12:30am 13.5 WNW 12 19 1015.5 - 4.0 - - - - - - -
26/12:00am 13.6 NW 9 14 1015.5 - 4.0 - - - - - - -
 
Date/Time
WST
Temp

°C
Wind Pressure Rain
since 9am
mm
Weather Cloud Vis
km
Sea
Height
m
Swell
Dir
 
Speed
knots
Gust
knots
hPa Trend Height
m
Period
s
Dir
25/11:30pm 13.8 NW 10 15 1015.7 - 4.0 - - - - - - -
25/11:00pm 13.6 WNW 11 16 1015.9 - 4.0 - - - - - - -
25/10:30pm 13.7 WNW 11 15 1015.9 - 4.0 - - - - - - -
25/10:00pm 13.7 WNW 10 15 1015.9 - 4.0 - - - - - - -
25/09:30pm 14.4 NW 12 18 1015.9 - 4.0 - - - - - - -
25/09:00pm 14.4 W 7 11 1016.4 - 4.0 - - - - - - -
25/08:30pm 14.7 WNW 10 14 1016.1 - 4.0 - - - - - - -
25/08:00pm 14.4 WNW 10 17 1016.0 - 4.0 - - - - - - -
25/07:30pm 14.8 WNW 9 17 1015.7 - 4.0 - - - - - - -
25/07:00pm 14.7 WNW 10 13 1015.2 - 4.0 - - - - - - -
25/06:30pm 14.7 WNW 10 19 1015.0 - 3.8 - - - - - - -
25/06:00pm 15.7 WNW 11 23 1014.8 - 3.8 - - - - - - -
25/05:30pm 16.2 WNW 11 17 1014.6 - 3.8 - - - - - - -
25/05:00pm 17.1 W 13 25 1014.5 - 3.8 - - - - - - -
25/04:41pm 17.5 W 15 28 1014.4 - 3.8 - - - - - - -
25/04:30pm 17.0 W 13 22 1014.2 - 3.8 - - - - - - -
25/04:00pm 18.0 W 14 21 1013.8 - 3.8 - - - - - - -
25/03:30pm 18.2 W 16 26 1013.8 - 3.6 - - - - - - -
25/03:04pm 18.5 W 15 25 1013.5 - 3.6 - - - - - - -
25/03:00pm 18.2 W 13 21 1013.5 - 3.6 - - - - - - -
25/02:31pm 17.6 W 15 26 1013.4 - 3.6 - - - - - - -
25/02:30pm 17.5 W 14 26 1013.5 - 3.6 - - - - - - -
25/02:09pm 18.2 W 15 25 1013.4 - 3.6 - - - - - - -
25/02:00pm 17.8 W 14 23 1013.4 - 3.6 - - - - - - -
25/01:30pm 17.0 W 12 20 1013.6 - 3.6 - - - - - - -
25/01:00pm 17.3 W 9 15 1013.5 - 3.6 - - - - - - -
25/12:30pm 17.3 W 9 14 1013.6 - 2.8 - - - - - - -
25/12:00pm 16.7 WNW 11 19 1013.5 - 2.0 Rain - - - - - -
25/11:30am 20.1 WNW 13 21 1012.9 - 0.0 - - - - - - -
25/11:00am 20.4 WNW 15 25 1013.1 - 0.0 - - - - - - -
25/10:30am 19.4 WNW 13 19 1013.7 - 0.0 - - - - - - -
25/10:00am 19.4 WNW 15 18 1013.6 - 0.0 - - - - - - -
25/09:30am 18.2 W 11 16 1013.8 - 0.0 - - - - - - -
25/09:00am 17.6 WNW 12 20 1013.8 - 0.0 - - - - - - -
25/08:30am 17.5 WNW 11 16 1013.9 - 0.0 - - - - - - -
25/08:00am 17.3 NW 13 18 1013.8 - 0.0 - - - - - - -
25/07:30am 16.3 NW 10 14 1013.8 - 0.0 - - - - - - -
25/07:00am 15.6 NNW 9 14 1013.8 - 0.0 - - - - - - -
25/06:30am 14.9 NNW 7 9 1013.8 - 0.0 - - - - - - -
25/06:00am 14.5 N 4 7 1013.6 - 0.0 - - - - - - -
25/05:30am 14.3 N 4 6 1013.3 - 0.0 - - - - - - -
25/05:00am 14.4 N 4 6 1013.1 - 0.0 - - - - - - -
25/04:30am 14.3 N 4 7 1013.1 - 0.0 - - - - - - -
25/04:00am 14.1 N 6 7 1013.1 - 0.0 - - - - - - -
25/03:30am 14.2 N 5 8 1012.9 - 0.0 - - - - - - -
25/03:00am 12.6 N 2 4 1013.1 - 0.0 - - - - - - -
25/02:30am 12.9 CALM 0 0 1013.4 - 0.0 - - - - - - -
25/02:00am 12.4 CALM 0 0 1013.1 - 0.0 - - - - - - -
25/01:30am 12.8 CALM 0 0 1013.3 - 0.0 - - - - - - -
25/01:00am 13.1 CALM 0 0 1013.6 - 0.0 - - - - - - -
25/12:30am 12.7 CALM 0 0 1013.8 - 0.0 - - - - - - -
25/12:00am 12.8 ENE 2 5 1013.9 - 0.0 - - - - - - -
 
Date/Time
WST
Temp

°C
Wind Pressure Rain
since 9am
mm
Weather Cloud Vis
km
Sea
Height
m
Swell
Dir
 
Speed
knots
Gust
knots
hPa Trend Height
m
Period
s
Dir
24/11:30pm 12.9 CALM 0 0 1014.2 - 0.0 - - - - - - -
24/11:00pm 13.5 NNE 2 5 1014.1 - 0.0 - - - - - - -
24/10:30pm 13.7 NE 1 4 1014.5 - 0.0 - - - - - - -
24/10:00pm 14.2 NE 3 5 1014.8 - 0.0 - - - - - - -
24/09:30pm 14.0 NNE 4 6 1015.0 - 0.0 - - - - - - -
24/09:00pm 13.4 CALM 0 0 1015.3 - 0.0 - - - - - - -
24/08:30pm 14.0 CALM 0 0 1015.1 - 0.0 - - - - - - -
24/08:00pm 14.5 CALM 0 0 1015.2 - 0.0 - - - - - - -
24/07:30pm 14.7 CALM 0 4 1015.4 - 0.0 - - - - - - -
24/07:00pm 15.0 CALM 0 0 1015.2 - 0.0 - - - - - - -
24/06:30pm 15.4 ENE 1 5 1015.1 - 0.0 - - - - - - -
24/06:00pm 16.0 ESE 4 5 1015.2 - 0.0 - - - - - - -
24/05:30pm 16.7 SE 5 7 1015.1 - 0.0 - - - - - - -
24/05:00pm 16.8 S 4 7 1015.2 - 0.0 - - - - - - -
24/04:30pm 17.1 S 3 8 1015.1 - 0.0 - - - - - - -
24/04:00pm 17.1 S 5 11 1014.9 - 0.0 - - - - - - -
24/03:30pm 18.4 S 5 10 1014.5 - 0.0 - - - - - - -
24/03:00pm 19.5 SSW 8 13 1014.6 - 0.0 - - - - - - -
24/02:30pm 19.9 SSW 2 6 1014.8 - 0.0 - - - - - - -
24/02:00pm 19.2 S 4 8 1015.3 - 0.0 - - - - - - -
24/01:30pm 18.9 WSW 5 8 1015.8 - 0.0 - - - - - - -
24/01:00pm 19.0 NW 5 7 1016.0 - 0.0 - - - - - - -
24/12:30pm 18.8 N 6 9 1016.3 - 0.0 - - - - - - -
24/12:00pm 18.4 N 5 8 1016.6 - 0.0 - - - - - - -
24/11:30am 17.1 ESE 4 6 1017.1 - 0.0 - - - - - - -
24/11:00am 17.5 NNE 3 6 1017.7 - 0.0 - - - - - - -
24/10:30am 16.7 ENE 5 8 1017.8 - 0.0 - - - - - - -
24/10:00am 16.2 NE 4 6 1018.2 - 0.0 - - - - - - -
24/09:30am 15.8 NNE 4 6 1018.1 - 0.0 - - - - - - -
24/09:00am 15.9 E 4 7 1018.0 - 0.6 - - - - - - -
24/08:30am 15.0 CALM 0 0 1018.0 - 0.6 - - - - - - -
24/08:00am 14.4 CALM 0 0 1017.9 - 0.6 - - - - - - -
24/07:30am 13.8 CALM 0 0 1017.9 - 0.6 - - - - - - -
24/07:00am 12.9 CALM 0 0 1017.8 - 0.6 - - - - - - -
24/06:30am 12.1 CALM 0 0 1018.0 - 0.6 - - - - - - -
24/06:00am 11.9 CALM 0 0 1017.8 - 0.6 - - - - - - -
24/05:30am 12.2 CALM 0 0 1017.7 - 0.6 - - - - - - -
24/05:00am 12.4 CALM 0 0 1017.5 - 0.6 - - - - - - -
24/04:30am 12.5 CALM 0 0 1017.6 - 0.6 - - - - - - -
24/04:00am 12.6 CALM 0 0 1017.7 - 0.6 - - - - - - -
24/03:30am 12.7 CALM 0 0 1018.0 - 0.6 - - - - - - -
24/03:00am 12.6 CALM 0 0 1018.1 - 0.6 - - - - - - -
24/02:30am 12.6 CALM 0 0 1018.0 - 0.6 - - - - - - -
24/02:00am 12.8 CALM 0 0 1017.8 - 0.6 - - - - - - -
24/01:30am 12.8 CALM 0 0 1018.0 - 0.6 - - - - - - -
24/01:00am 12.8 CALM 0 0 1018.1 - 0.6 - - - - - - -
24/12:30am 13.2 CALM 0 0 1018.2 - 0.6 - - - - - - -
24/12:00am 13.2 CALM 0 0 1018.3 - 0.6 - - - - - - -
 
Date/Time
WST
Temp

°C
Wind Pressure Rain
since 9am
mm
Weather Cloud Vis
km
Sea
Height
m
Swell
Dir
 
Speed
knots
Gust
knots
hPa Trend Height
m
Period
s
Dir
23/11:30pm 13.1 SW 1 4 1018.3 - 0.6 - - - - - - -
23/11:00pm 13.3 CALM 0 0 1018.1 - 0.6 - - - - - - -
23/10:30pm 13.3 WSW 2 5 1018.2 - 0.6 - - - - - - -
23/10:00pm 13.5 CALM 0 3 1018.2 - 0.6 - - - - - - -
23/09:30pm 13.7 SW 3 5 1018.2 - 0.6 - - - - - - -
23/09:00pm 13.7 SW 1 5 1018.1 - 0.4 - - - - - - -
23/08:30pm 13.8 SSW 5 6 1018.1 - 0.4 - - - - - - -
23/08:00pm 14.1 S 5 10 1017.8 - 0.4 - - - - - - -
23/07:30pm 14.0 CALM 0 1 1017.4 - 0.4 - - - - - - -
23/07:00pm 14.6 SSW 1 5 1017.3 - 0.4 - - - - - - -
23/06:30pm 14.9 SSW 2 4 1016.9 - 0.4 - - - - - - -
23/06:00pm 15.1 SSW 4 8 1016.6 - 0.4 - - - - - - -
23/05:30pm 15.4 SW 7 14 1016.5 - 0.4 - - - - - - -
23/05:00pm 16.1 SW 8 14 1016.2 - 0.4 - - - - - - -
23/04:30pm 15.5 SW 7 12 1016.0 - 0.4 - - - - - - -
23/04:00pm 16.4 SW 9 15 1015.7 - 0.4 - - - - - - -
23/03:30pm 16.0 SW 10 16 1015.4 - 0.4 - - - - - - -
23/03:00pm 15.7 WSW 11 17 1015.0 - 0.4 - - - - - - -
23/02:30pm 15.9 WSW 14 22 1014.7 - 0.4 - - - - - - -
23/02:00pm 16.2 SW 11 19 1014.2 - 0.4 - - - - - - -
23/01:30pm 16.1 SW 14 19 1014.1 - 0.4 - - - - - - -
23/01:00pm 15.6 WSW 12 17 1013.7 - 0.4 - - - - - - -
23/12:30pm 15.4 WSW 11 17 1013.3 - 0.2 - - - - - - -
23/12:00pm 15.8 WSW 14 24 1012.8 - 0.0 - - - - - - -
23/11:30am 16.6 WSW 12 21 1012.4 - 0.0 - - - - - - -
23/11:00am 16.4 WSW 15 23 1012.3 - 0.0 - - - - - - -
23/10:38am 16.7 WSW 15 26 1012.0 - 0.0 - - - - - - -
23/10:30am 17.0 W 15 23 1011.9 - 0.0 - - - - - - -
23/10:00am 16.4 WSW 12 19 1011.7 - 0.0 - - - - - - -
23/09:30am 16.2 W 12 19 1011.2 - 0.0 - - - - - - -
23/09:19am 16.2 W 15 26 1011.0 - 0.0 - - - - - - -
23/09:00am 16.5 W 10 16 1010.8 - 11.6 Recent precip. - - - - - -
23/08:30am 16.3 WNW 11 16 1010.4 - 11.4 - - - - - - -
23/08:00am 16.4 WNW 11 16 1010.1 - 11.0 - - - - - - -

Other Formats:

Comma delimited format used in spreadsheet applications
http://www.bom.gov.au/fwo/IDW60701/IDW60701.95647.axf

JavaScript Object Notation format (JSON) in row-major order
http://www.bom.gov.au/fwo/IDW60701/IDW60701.95647.json